CheckWX is a tool to help pilots better visualize weather data.  It is not intended as a substitute for an official pre-flight weather briefing.

13:19:56 UTC

HTSO METAR
Songea Airport
Songea, Tanzania
Current

2 hours ago

HTSO 221100Z 30007KT 9999 SCT019 FEW020CB BKN090 26/19 Q1019
Observed
Feb-22 @ 11:00 UTC
Wind
  • 300° at 7 KTS
Visibility
10,000+ meters
Flight Rules
VFR
Cloud Levels
  • Scattered at 1,900' AGL
  • Few at 2,000' AGL
  • Broken at 9,000' AGL
Temperature
26°C / 79°F
Dewpoint
19°C / 66°F
Humidity
65%
Altimeter
30.09" Hg
Pressure
1018.92 hPa
Previous

3 hours ago

HTSO 221000Z 04005KT 9999 SCT018 FEW019CB BKN090 25/15
Observed
Feb-22 @ 10:00 UTC
Wind
  • 040° at 5 KTS
Visibility
10,000+ meters
Flight Rules
VFR
Cloud Levels
  • Scattered at 1,800' AGL
  • Few at 1,900' AGL
  • Broken at 9,000' AGL
Temperature
25°C / 77°F
Dewpoint
15°C / 59°F
Humidity
54%
Previous

4 hours ago

HTSO 220900Z 00000KT 9999 -RA SCT016 FEW017CB BKN070 23/20 Q1021
Observed
Feb-22 @ 09:00 UTC
Visibility
10,000+ meters
Flight Rules
VFR
Conditions
Light Rain
Cloud Levels
  • Scattered at 1,600' AGL
  • Few at 1,700' AGL
  • Broken at 7,000' AGL
Temperature
23°C / 73°F
Dewpoint
20°C / 68°F
Humidity
83%
Altimeter
30.15" Hg
Pressure
1020.92 hPa